createdAt,value
2022-11-08T00:00:00.488Z,100.00
2022-11-08T00:02:27.683Z,100.00
2022-11-08T00:04:54.800Z,100.00
2022-11-08T00:07:40.656Z,100.00
2022-11-08T00:10:26.998Z,100.00
2022-11-08T00:13:12.517Z,100.00
2022-11-08T00:15:39.498Z,100.00
2022-11-08T00:18:07.554Z,100.00
2022-11-08T00:20:34.889Z,100.00
2022-11-08T00:23:02.003Z,99.45
2022-11-08T00:25:28.993Z,100.00
2022-11-08T00:27:55.932Z,100.00
2022-11-08T00:30:22.870Z,100.00
2022-11-08T00:32:49.812Z,100.00
2022-11-08T00:35:16.922Z,100.00
2022-11-08T00:37:43.832Z,100.00
2022-11-08T00:40:12.109Z,100.00
2022-11-08T00:42:39.130Z,100.00
2022-11-08T00:45:06.818Z,100.00
2022-11-08T00:47:33.825Z,99.93
2022-11-08T00:50:00.769Z,100.00
2022-11-08T00:52:27.753Z,99.58
2022-11-08T00:54:54.658Z,99.96
2022-11-08T00:57:27.532Z,99.50
2022-11-08T01:00:09.859Z,99.54
2022-11-08T01:02:36.883Z,99.42
2022-11-08T01:05:04.046Z,99.41
2022-11-08T01:07:30.997Z,99.68
2022-11-08T01:09:57.951Z,99.05
2022-11-08T01:12:24.942Z,99.50
2022-11-08T01:14:51.895Z,99.82
2022-11-08T01:17:18.842Z,98.83
2022-11-08T01:19:45.819Z,99.09
2022-11-08T01:22:12.799Z,99.54
2022-11-08T01:24:39.816Z,99.33
2022-11-08T01:27:06.792Z,98.90
2022-11-08T01:29:33.863Z,98.61
2022-11-08T01:32:00.817Z,98.26
2022-11-08T01:34:27.747Z,98.60
2022-11-08T01:36:54.705Z,98.71
2022-11-08T01:39:21.618Z,98.07
2022-11-08T01:41:48.660Z,97.65
2022-11-08T01:44:17.637Z,97.27
2022-11-08T01:46:47.908Z,98.55
2022-11-08T01:49:43.547Z,98.77
2022-11-08T01:52:19.022Z,98.36
2022-11-08T01:55:21.424Z,98.52
2022-11-08T01:57:50.393Z,97.80
2022-11-08T02:00:17.964Z,98.52
2022-11-08T02:02:51.685Z,98.37
2022-11-08T02:05:26.140Z,97.78
2022-11-08T02:07:59.174Z,97.85
2022-11-08T02:10:37.365Z,96.63
2022-11-08T02:13:19.473Z,97.60
2022-11-08T02:15:46.850Z,96.86
2022-11-08T02:18:16.681Z,97.01
2022-11-08T02:21:42.879Z,97.62
2022-11-08T02:24:13.101Z,97.40
2022-11-08T02:26:40.774Z,97.01
2022-11-08T02:29:43.059Z,97.49
2022-11-08T02:32:11.326Z,97.97
2022-11-08T02:34:47.666Z,98.23
2022-11-08T02:37:18.536Z,98.20
2022-11-08T02:39:46.419Z,98.40
2022-11-08T02:42:15.983Z,97.99
2022-11-08T02:44:42.941Z,97.85
2022-11-08T02:47:09.886Z,97.34
2022-11-08T02:49:37.754Z,97.49
2022-11-08T02:52:05.397Z,98.13
2022-11-08T02:54:32.511Z,97.83
2022-11-08T02:56:59.460Z,97.80
2022-11-08T02:59:26.433Z,97.29
2022-11-08T03:01:53.469Z,97.06
2022-11-08T03:04:20.515Z,97.43
2022-11-08T03:06:47.424Z,97.79
2022-11-08T03:09:14.394Z,97.45
2022-11-08T03:11:41.405Z,97.57
2022-11-08T03:14:08.415Z,97.18
2022-11-08T03:16:35.331Z,97.89
2022-11-08T03:19:02.283Z,97.78
2022-11-08T03:21:29.217Z,98.10
2022-11-08T03:23:56.391Z,98.11
2022-11-08T03:26:23.341Z,98.52
2022-11-08T03:28:50.221Z,98.05
2022-11-08T03:31:17.216Z,97.98
2022-11-08T03:33:44.161Z,98.34
2022-11-08T03:36:11.154Z,98.58
2022-11-08T03:38:38.050Z,98.39
2022-11-08T03:41:05.123Z,98.66
2022-11-08T03:43:32.037Z,99.04
2022-11-08T03:45:59.044Z,98.80
2022-11-08T03:48:25.974Z,98.30
2022-11-08T03:50:53.010Z,98.60
2022-11-08T03:53:19.958Z,99.29
2022-11-08T03:55:46.909Z,98.54
2022-11-08T03:58:13.962Z,98.27
2022-11-08T04:00:41.118Z,99.12
2022-11-08T04:03:09.082Z,98.46
2022-11-08T04:05:36.012Z,97.98
2022-11-08T04:08:05.927Z,98.33
2022-11-08T04:10:33.000Z,97.52
2022-11-08T04:13:19.759Z,98.10
2022-11-08T04:15:53.188Z,98.62
2022-11-08T04:18:38.670Z,98.78
2022-11-08T04:21:21.993Z,99.38
2022-11-08T04:23:52.998Z,99.76
2022-11-08T04:26:21.681Z,100.00
2022-11-08T04:28:48.671Z,99.94
2022-11-08T04:31:18.744Z,99.45
2022-11-08T04:33:46.457Z,99.46
2022-11-08T04:36:16.792Z,99.97
2022-11-08T04:38:47.360Z,99.70
2022-11-08T04:41:16.197Z,100.00
2022-11-08T04:43:43.376Z,99.42
2022-11-08T04:46:14.081Z,99.90
2022-11-08T04:48:42.239Z,99.83
2022-11-08T04:51:17.801Z,99.92
2022-11-08T04:53:45.421Z,99.45
2022-11-08T04:56:19.704Z,99.96
2022-11-08T04:58:53.163Z,100.00
2022-11-08T05:01:24.298Z,100.00
2022-11-08T05:03:53.468Z,100.00
2022-11-08T05:06:30.242Z,100.00
2022-11-08T05:08:58.815Z,100.00
2022-11-08T05:11:28.546Z,100.00
2022-11-08T05:13:56.335Z,100.00
2022-11-08T05:16:32.214Z,100.00
2022-11-08T05:18:59.576Z,100.00
2022-11-08T05:21:46.140Z,100.00
2022-11-08T05:24:17.721Z,100.00
2022-11-08T05:26:48.188Z,100.00
2022-11-08T05:29:16.696Z,100.00
2022-11-08T05:31:43.916Z,100.00
2022-11-08T05:34:10.862Z,100.00
2022-11-08T05:36:37.866Z,100.00
2022-11-08T05:39:04.908Z,100.00
2022-11-08T05:41:31.906Z,100.00
2022-11-08T05:43:59.095Z,100.00
2022-11-08T05:46:26.033Z,100.00
2022-11-08T05:48:53.190Z,100.00
2022-11-08T05:51:21.153Z,100.00
2022-11-08T05:53:48.872Z,100.00
2022-11-08T05:56:16.407Z,100.00
2022-11-08T05:58:43.504Z,100.00
2022-11-08T06:01:15.604Z,100.00
2022-11-08T06:03:42.929Z,100.00
2022-11-08T06:06:17.056Z,100.00
2022-11-08T06:08:49.031Z,100.00
2022-11-08T06:11:21.789Z,100.00
2022-11-08T06:13:49.533Z,100.00
2022-11-08T06:16:18.876Z,100.00
2022-11-08T06:18:47.016Z,100.00
2022-11-08T06:21:18.235Z,100.00
2022-11-08T06:23:45.564Z,99.16
2022-11-08T06:26:12.826Z,98.93
2022-11-08T06:28:39.780Z,98.76
2022-11-08T06:31:06.693Z,97.61
2022-11-08T06:33:34.256Z,97.39
2022-11-08T06:36:02.177Z,96.57
2022-11-08T06:38:29.190Z,96.01
2022-11-08T06:41:00.371Z,96.12
2022-11-08T06:43:27.948Z,95.24
2022-11-08T06:45:55.217Z,94.76
2022-11-08T06:48:22.189Z,95.50
2022-11-08T06:50:49.097Z,95.10
2022-11-08T06:53:16.624Z,93.97
2022-11-08T06:55:43.757Z,94.71
2022-11-08T06:58:11.276Z,94.22
2022-11-08T07:00:38.658Z,94.40
2022-11-08T07:03:05.677Z,94.15
2022-11-08T07:05:34.840Z,93.52
2022-11-08T07:08:04.394Z,92.70
2022-11-08T07:10:34.027Z,93.76
2022-11-08T07:13:06.458Z,93.84
2022-11-08T07:15:35.549Z,94.75
2022-11-08T07:18:12.797Z,93.88
2022-11-08T07:20:40.897Z,94.46
2022-11-08T07:23:09.190Z,94.50
2022-11-08T07:25:36.809Z,93.79
2022-11-08T07:28:07.364Z,93.40
2022-11-08T07:30:35.764Z,91.80
2022-11-08T07:33:03.693Z,87.58
2022-11-08T07:35:30.670Z,84.93
2022-11-08T07:37:58.294Z,81.02
2022-11-08T07:40:25.502Z,75.85
2022-11-08T07:45:40.822Z,70.39
2022-11-08T07:48:12.573Z,67.85
2022-11-08T07:50:42.174Z,65.74
2022-11-08T07:53:10.224Z,63.72
2022-11-08T07:55:39.184Z,62.69
2022-11-08T07:58:06.941Z,60.75
2022-11-08T08:00:36.952Z,59.61
2022-11-08T08:03:07.151Z,58.33
2022-11-08T08:05:37.608Z,56.96
2022-11-08T08:08:05.410Z,56.56
2022-11-08T08:10:34.513Z,54.43
2022-11-08T08:13:01.934Z,53.95
2022-11-08T08:15:28.988Z,52.24
2022-11-08T08:17:56.073Z,51.02
2022-11-08T08:20:23.053Z,49.59
2022-11-08T08:22:52.531Z,50.08
2022-11-08T08:25:19.631Z,49.80
2022-11-08T08:27:51.486Z,48.78
2022-11-08T08:30:19.547Z,47.49
2022-11-08T08:32:53.466Z,47.14
2022-11-08T08:35:24.837Z,46.73
2022-11-08T08:37:51.760Z,46.15
2022-11-08T08:40:18.807Z,45.58
2022-11-08T08:42:45.803Z,44.16
2022-11-08T08:45:15.080Z,43.96
2022-11-08T08:47:42.275Z,43.09
2022-11-08T08:50:09.734Z,43.07
2022-11-08T08:52:36.706Z,43.67
2022-11-08T08:55:03.801Z,43.26
2022-11-08T08:57:30.757Z,44.49
2022-11-08T09:02:44.937Z,42.89
2022-11-08T09:05:13.498Z,42.73
2022-11-08T09:07:41.492Z,42.65
2022-11-08T09:10:10.436Z,41.62
2022-11-08T09:12:38.058Z,41.69
2022-11-08T09:15:06.881Z,41.13
2022-11-08T09:17:33.850Z,42.24
2022-11-08T09:20:00.987Z,41.35
2022-11-08T09:22:28.084Z,40.98
2022-11-08T09:24:55.042Z,39.76
2022-11-08T09:27:21.991Z,39.29
2022-11-08T09:29:48.942Z,39.51
2022-11-08T09:32:17.241Z,40.25
2022-11-08T09:34:48.672Z,40.21
2022-11-08T09:37:16.769Z,38.57
2022-11-08T09:39:43.862Z,39.93
2022-11-08T09:42:53.799Z,38.41
2022-11-08T09:45:46.543Z,38.36
2022-11-08T09:48:29.896Z,38.33
2022-11-08T09:50:59.123Z,37.41
2022-11-08T09:53:52.711Z,38.58
2022-11-08T09:56:24.069Z,38.38
2022-11-08T09:59:01.934Z,39.01
2022-11-08T10:01:35.480Z,38.35
2022-11-08T10:04:26.433Z,37.97
2022-11-08T10:07:32.224Z,38.32
2022-11-08T10:10:11.592Z,38.53
2022-11-08T10:13:22.705Z,37.97
2022-11-08T10:16:22.063Z,37.34
2022-11-08T10:19:05.425Z,37.30
2022-11-08T10:21:51.583Z,37.15
2022-11-08T10:24:47.843Z,37.73
2022-11-08T10:27:32.710Z,38.11
2022-11-08T10:30:13.521Z,38.46
2022-11-08T10:32:41.033Z,37.40
2022-11-08T10:35:21.898Z,37.49
2022-11-08T10:37:52.182Z,38.16
2022-11-08T10:40:44.238Z,38.00
2022-11-08T10:43:23.769Z,38.30
2022-11-08T10:45:50.900Z,39.86
2022-11-08T10:48:18.155Z,39.78
2022-11-08T10:50:50.567Z,39.86
2022-11-08T10:53:29.841Z,39.81
2022-11-08T10:56:03.545Z,39.67
2022-11-08T10:58:41.464Z,38.97
2022-11-08T11:01:21.895Z,40.32
2022-11-08T11:03:51.796Z,40.65
2022-11-08T11:06:32.954Z,40.15
2022-11-08T11:09:22.141Z,39.44
2022-11-08T11:12:07.691Z,40.37
2022-11-08T11:14:34.646Z,40.22
2022-11-08T11:17:07.596Z,39.63
2022-11-08T11:19:35.335Z,40.05
2022-11-08T11:22:08.029Z,40.79
2022-11-08T11:24:50.311Z,40.39
2022-11-08T11:27:32.395Z,40.08
2022-11-08T11:30:28.226Z,40.33
2022-11-08T11:33:24.942Z,39.53
2022-11-08T11:36:13.816Z,40.02
2022-11-08T11:39:13.742Z,41.65
2022-11-08T11:42:39.092Z,40.42
2022-11-08T11:45:32.953Z,41.07
2022-11-08T11:48:10.583Z,41.29
2022-11-08T11:50:46.070Z,41.43
2022-11-08T11:53:33.066Z,42.08
2022-11-08T11:56:28.478Z,42.58
2022-11-08T11:59:13.599Z,43.50
2022-11-08T12:01:58.555Z,43.38
2022-11-08T12:05:08.357Z,43.50
2022-11-08T12:07:44.905Z,44.13
2022-11-08T12:10:45.659Z,44.33
2022-11-08T12:13:27.400Z,44.55
2022-11-08T12:16:15.033Z,44.47
2022-11-08T12:19:13.446Z,45.49
2022-11-08T12:22:25.772Z,45.41
2022-11-08T12:25:18.618Z,46.21
2022-11-08T12:28:17.765Z,46.06
2022-11-08T12:31:02.677Z,46.35
2022-11-08T12:33:58.204Z,47.08
2022-11-08T12:37:03.713Z,46.66
2022-11-08T12:40:04.109Z,48.25
2022-11-08T12:43:13.267Z,48.89
2022-11-08T12:45:56.305Z,49.17
2022-11-08T12:49:00.500Z,49.69
2022-11-08T12:52:08.621Z,49.73
2022-11-08T12:54:46.152Z,49.63
2022-11-08T12:57:17.713Z,51.04
2022-11-08T13:00:17.338Z,50.37
2022-11-08T13:03:08.055Z,50.54
2022-11-08T13:06:22.965Z,51.42
2022-11-08T13:09:18.876Z,51.92
2022-11-08T13:12:12.858Z,51.37
2022-11-08T13:14:41.512Z,51.93
2022-11-08T13:17:27.345Z,53.09
2022-11-08T13:20:04.831Z,53.92
2022-11-08T13:22:32.411Z,54.27
2022-11-08T13:25:01.555Z,53.78
2022-11-08T13:27:37.275Z,53.93
2022-11-08T13:30:16.431Z,54.32
2022-11-08T13:32:43.308Z,54.62
2022-11-08T13:35:58.161Z,55.80
2022-11-08T13:38:47.336Z,56.38
2022-11-08T13:41:24.311Z,56.45
2022-11-08T13:43:55.146Z,56.38
2022-11-08T13:46:28.048Z,56.73
2022-11-08T13:49:06.298Z,57.08
2022-11-08T13:51:38.674Z,57.52
2022-11-08T13:54:23.646Z,57.88
2022-11-08T13:57:01.144Z,58.56
2022-11-08T13:59:31.151Z,59.15
2022-11-08T14:01:58.357Z,59.08
2022-11-08T14:04:33.733Z,59.27
2022-11-08T14:07:22.080Z,59.90
2022-11-08T14:10:06.207Z,59.58
2022-11-08T14:12:52.287Z,60.34
2022-11-08T14:15:46.584Z,60.47
2022-11-08T14:18:26.369Z,60.75
2022-11-08T14:20:57.751Z,61.04
2022-11-08T14:23:33.233Z,61.27
2022-11-08T14:26:10.919Z,61.68
2022-11-08T14:28:44.338Z,61.91
2022-11-08T14:31:34.497Z,62.49
2022-11-08T14:34:02.378Z,63.19
2022-11-08T14:36:31.751Z,63.05
2022-11-08T14:39:16.212Z,63.61
2022-11-08T14:41:51.789Z,63.12
2022-11-08T14:44:19.628Z,63.69
2022-11-08T14:46:48.040Z,64.01
2022-11-08T14:49:15.690Z,64.58
2022-11-08T14:51:43.616Z,64.36
2022-11-08T14:54:29.872Z,64.83
2022-11-08T14:56:56.765Z,64.64
2022-11-08T14:59:24.821Z,64.92
2022-11-08T15:01:52.207Z,65.79
2022-11-08T15:04:24.000Z,66.05
2022-11-08T15:06:56.669Z,66.07
2022-11-08T15:09:33.357Z,66.21
2022-11-08T15:12:07.265Z,66.46
2022-11-08T15:14:36.849Z,67.09
2022-11-08T15:17:04.202Z,67.07
2022-11-08T15:19:44.955Z,67.30
2022-11-08T15:22:30.560Z,68.47
2022-11-08T15:25:35.485Z,69.04
2022-11-08T15:28:21.558Z,69.90
2022-11-08T15:31:00.002Z,69.52
2022-11-08T15:33:45.362Z,68.63
2022-11-08T15:36:23.370Z,68.75
2022-11-08T15:38:50.531Z,69.24
2022-11-08T15:41:39.112Z,70.42
2022-11-08T15:44:24.790Z,70.78
2022-11-08T15:46:53.692Z,70.25
2022-11-08T15:49:26.660Z,70.55
2022-11-08T15:51:56.360Z,71.15
2022-11-08T15:54:26.438Z,70.94
2022-11-08T15:56:55.551Z,71.40
2022-11-08T15:59:29.986Z,71.66
2022-11-08T16:02:00.137Z,71.85
2022-11-08T16:04:29.196Z,72.39
2022-11-08T16:06:57.292Z,72.72
2022-11-08T16:09:24.306Z,73.51
2022-11-08T16:11:51.519Z,73.13
2022-11-08T16:14:23.421Z,73.68
2022-11-08T16:16:50.697Z,74.04
2022-11-08T16:19:24.919Z,74.25
2022-11-08T16:21:52.983Z,74.83
2022-11-08T16:24:19.970Z,74.77
2022-11-08T16:26:48.299Z,75.38
2022-11-08T16:29:22.841Z,74.64
2022-11-08T16:31:51.413Z,74.60
2022-11-08T16:34:19.243Z,74.60
2022-11-08T16:36:48.762Z,75.25
2022-11-08T16:39:23.297Z,74.84
2022-11-08T16:41:50.253Z,75.41
2022-11-08T16:44:18.408Z,75.71
2022-11-08T16:46:45.721Z,75.92
2022-11-08T16:49:21.835Z,76.02
2022-11-08T16:51:49.663Z,76.29
2022-11-08T16:54:24.952Z,76.96
2022-11-08T16:57:03.392Z,76.87
2022-11-08T16:59:39.182Z,77.37
2022-11-08T17:02:33.118Z,76.85
2022-11-08T17:05:00.354Z,76.79
2022-11-08T17:07:28.765Z,76.87
2022-11-08T17:09:55.752Z,77.15
2022-11-08T17:12:22.763Z,77.57
2022-11-08T17:14:49.680Z,77.61
2022-11-08T17:17:16.594Z,77.53
2022-11-08T17:19:43.601Z,77.97
2022-11-08T17:22:10.543Z,78.29
2022-11-08T17:24:37.492Z,78.27
2022-11-08T17:27:04.454Z,78.52
2022-11-08T17:29:31.599Z,78.99
2022-11-08T17:31:58.538Z,79.40
2022-11-08T17:34:25.492Z,78.63
2022-11-08T17:36:52.998Z,79.10
2022-11-08T17:39:19.984Z,78.69
2022-11-08T17:41:46.998Z,78.84
2022-11-08T17:44:14.696Z,79.30
2022-11-08T17:46:41.653Z,79.94
2022-11-08T17:49:09.283Z,79.86
2022-11-08T17:51:36.722Z,79.82
2022-11-08T17:54:03.918Z,79.92
2022-11-08T17:56:31.242Z,80.17
2022-11-08T17:58:58.216Z,80.75
2022-11-08T18:01:25.494Z,81.13
2022-11-08T18:03:52.553Z,81.15
2022-11-08T18:06:19.512Z,81.91
2022-11-08T18:08:46.517Z,82.05
2022-11-08T18:11:13.533Z,81.55
2022-11-08T18:13:40.612Z,82.24
2022-11-08T18:16:14.570Z,82.72
2022-11-08T18:18:42.607Z,82.65
2022-11-08T18:21:10.354Z,83.25
2022-11-08T18:23:41.325Z,83.48
2022-11-08T18:26:08.869Z,83.58
2022-11-08T18:28:38.148Z,83.61
2022-11-08T18:31:08.251Z,84.41
2022-11-08T18:33:36.255Z,84.34
2022-11-08T18:36:15.859Z,84.79
2022-11-08T18:38:45.795Z,84.83
2022-11-08T18:41:17.967Z,84.81
2022-11-08T18:43:45.404Z,85.63
2022-11-08T18:46:16.021Z,85.68
2022-11-08T18:48:43.841Z,86.25
2022-11-08T18:51:14.169Z,86.31
2022-11-08T18:53:41.574Z,86.56
2022-11-08T18:56:09.821Z,87.01
2022-11-08T18:58:36.813Z,87.31
2022-11-08T19:01:04.579Z,87.18
2022-11-08T19:03:33.290Z,87.62
2022-11-08T19:06:00.232Z,87.94
2022-11-08T19:08:30.289Z,87.49
2022-11-08T19:11:16.850Z,88.14
2022-11-08T19:13:43.768Z,88.60
2022-11-08T19:16:16.854Z,88.97
2022-11-08T19:18:45.136Z,89.41
2022-11-08T19:21:24.598Z,89.45
2022-11-08T19:23:56.125Z,89.61
2022-11-08T19:26:25.778Z,89.91
2022-11-08T19:28:56.882Z,90.21
2022-11-08T19:31:25.971Z,90.55
2022-11-08T19:33:54.307Z,90.41
2022-11-08T19:36:27.999Z,90.72
2022-11-08T19:38:56.586Z,90.71
2022-11-08T19:41:27.537Z,91.30
2022-11-08T19:43:57.965Z,91.42
2022-11-08T19:46:29.300Z,91.55
2022-11-08T19:48:58.610Z,91.99
2022-11-08T19:51:29.606Z,92.48
2022-11-08T19:54:06.659Z,92.33
2022-11-08T19:57:04.853Z,92.26
2022-11-08T19:59:23.752Z,92.36
2022-11-08T20:01:50.808Z,92.80
2022-11-08T20:04:18.672Z,93.18
2022-11-08T20:06:48.935Z,93.53
2022-11-08T20:09:16.035Z,93.86
2022-11-08T20:11:43.216Z,93.90
2022-11-08T20:14:13.299Z,93.97
2022-11-08T20:16:43.006Z,93.89
2022-11-08T20:19:14.962Z,94.36
2022-11-08T20:21:44.024Z,94.05
2022-11-08T20:24:11.930Z,94.08
2022-11-08T20:26:41.427Z,94.18
2022-11-08T20:29:08.667Z,94.44
2022-11-08T20:31:36.058Z,94.38
2022-11-08T20:34:06.026Z,94.55
2022-11-08T20:36:35.250Z,94.62
2022-11-08T20:39:07.328Z,95.11
2022-11-08T20:41:37.523Z,95.45
2022-11-08T20:44:06.843Z,95.30
2022-11-08T20:46:35.174Z,95.31
2022-11-08T20:49:03.573Z,94.83
2022-11-08T20:51:31.804Z,95.21
2022-11-08T20:54:00.528Z,95.00
2022-11-08T20:56:28.154Z,95.14
2022-11-08T20:58:55.279Z,95.50
2022-11-08T21:01:25.797Z,95.45
2022-11-08T21:03:52.891Z,95.29
2022-11-08T21:06:24.128Z,95.56
2022-11-08T21:09:03.263Z,95.74
2022-11-08T21:11:38.135Z,96.03
2022-11-08T21:14:05.545Z,95.39
2022-11-08T21:16:52.819Z,95.99
2022-11-08T21:19:20.712Z,96.44
2022-11-08T21:21:47.830Z,95.64
2022-11-08T21:24:14.819Z,96.11
2022-11-08T21:26:41.755Z,96.11
2022-11-08T21:29:08.707Z,96.05
2022-11-08T21:31:35.752Z,96.58
2022-11-08T21:34:02.809Z,96.74
2022-11-08T21:36:29.858Z,96.26
2022-11-08T21:38:56.971Z,97.05
2022-11-08T21:41:24.014Z,96.96
2022-11-08T21:43:51.090Z,97.46
2022-11-08T21:46:24.045Z,96.97
2022-11-08T21:49:00.811Z,97.68
2022-11-08T21:51:29.530Z,97.76
2022-11-08T21:53:58.958Z,97.70
2022-11-08T21:56:30.126Z,98.15
2022-11-08T21:58:57.560Z,98.12
2022-11-08T22:01:29.888Z,98.80
2022-11-08T22:03:59.325Z,98.92
2022-11-08T22:06:27.261Z,97.95
2022-11-08T22:08:54.580Z,98.66
2022-11-08T22:11:21.610Z,98.80
2022-11-08T22:13:48.644Z,99.14
2022-11-08T22:16:15.667Z,99.18
2022-11-08T22:21:39.318Z,99.46
2022-11-08T22:24:18.280Z,99.36
2022-11-08T22:26:45.911Z,100.00
2022-11-08T22:29:13.681Z,99.52
2022-11-08T22:31:40.758Z,100.00
2022-11-08T22:34:09.558Z,99.85
2022-11-08T22:36:44.439Z,100.00
2022-11-08T22:39:17.561Z,100.00
2022-11-08T22:41:45.906Z,99.98
2022-11-08T22:44:14.151Z,99.83
2022-11-08T22:46:42.938Z,99.57
2022-11-08T22:49:10.943Z,100.00
2022-11-08T22:51:39.368Z,99.75
2022-11-08T22:54:06.622Z,99.96
2022-11-08T22:56:33.991Z,100.00
2022-11-08T22:59:01.153Z,99.47
2022-11-08T23:01:28.163Z,100.00
2022-11-08T23:03:55.190Z,99.76
2022-11-08T23:06:22.230Z,100.00
2022-11-08T23:08:49.261Z,100.00
2022-11-08T23:11:35.181Z,100.00
2022-11-08T23:14:21.018Z,100.00
2022-11-08T23:16:48.101Z,100.00
2022-11-08T23:19:39.203Z,100.00
2022-11-08T23:22:29.689Z,100.00
2022-11-08T23:24:58.212Z,100.00
2022-11-08T23:27:44.596Z,100.00
2022-11-08T23:30:34.952Z,100.00
2022-11-08T23:33:03.350Z,100.00
2022-11-08T23:35:30.335Z,100.00
2022-11-08T23:37:57.298Z,100.00
2022-11-08T23:40:42.940Z,100.00
2022-11-08T23:43:35.632Z,100.00
2022-11-08T23:46:12.751Z,100.00
2022-11-08T23:48:40.817Z,100.00
2022-11-08T23:51:08.407Z,100.00
2022-11-08T23:53:39.990Z,100.00
2022-11-08T23:56:07.464Z,100.00
2022-11-08T23:58:34.452Z,100.00
